Pagrindinis puslapis
METAR-TAF:

METAR-TAF

Oro uostai :

Zonguldakas, Turkija

platuma: 41-27N, ilguma: 031-48E, Aukštis: 136 m

Dabartinis oras

Ataskaita buvo paskelbta 8 valandos ir 20 minutes, ne 13:50 UTC
Vėjas 9 kt iš Vakarų, svyruoja nuo Pietvakarių ir Šiaurės Vakarų
Temperatūra 24°C
Drėgmė 47%
Slėgis 1009 hPa
Matomumas 10 km arba daugiau
Išsisklaidę debesys ne aukštis 3000 ft
Su prošvaistėmis ne aukštis 10000 ft

METAR: LTAS 171350Z 26009KT 220V310 9999 SCT030 BKN100 24/12 Q1009

Laikas: 01:10 (22:10 UTC)

Prognozė

Ataskaita buvo paskelbta 8 valandos ir 30 minutes, ne 13:40 UTC
Prognozė galioja nuo 17 metu 15 UTC su 17 metu 24 UTC
Vėjas 2 kt nuo kintamojo kryptimis
Matomumas 10 km arba daugiau
Išsisklaidę debesys ne aukštis 3000 ft

TAF: LTAS 171340Z 1715/1724 VRB02KT 9999 SCT030

Orai ataskaitas ir orų prognozės (METAR, TAF).

turimą stotys yra geltonos ir raudonos taškus žemėlapyje.

Perkelti pele per norėdami pamatyti stoties vardą.

Tada spustelėkite, norėdami matyti oro stebėjimo ir prognozės.

Norėdami pakeisti žemėlapį: spustelėkite ant žalios mygtukų su juodo kryžiaus žemyn,; žalią mygtuką su brūkšneliu, jei norite nutolinti; arba žalių rodyklių gretimoms žemėlapius.


METAR-TAF: